Time;durP1;ratioP1;P1;durP2;ratioP2;P2;SDS_P1;SDS_P2;PMS_P1;PMS_P2;Temp;Humidity;BMP_temperature;BMP_pressure;BME280_temperature;BME280_humidity;BME280_pressure;Samples;Min_cycle;Max_cycle;Signal;HPM_P1;HPM_P2
2021/05/27 00:02:17;;;;;;;;;;;;;;;14.02;84.58;99775.02;1768242;81;21069;-62
2021/05/27 00:04:44;;;;;;;7.45;6.28;;;;;;;14.04;84.32;99767.31;1766511;81;20140;-63
2021/05/27 00:07:11;;;;;;;9.28;6.20;;;;;;;14.06;84.35;99770.59;1756567;81;21068;-63
2021/05/27 00:09:37;;;;;;;;;;;;;;;14.09;84.20;99770.00;1751919;81;21990;-62
2021/05/27 00:12:04;;;;;;;11.73;6.85;;;;;;;14.08;83.95;99766.99;1753943;81;20158;-62
2021/05/27 00:14:32;;;;;;;7.30;6.35;;;;;;;14.04;84.08;99767.86;1688387;83;21101;-63
2021/05/27 00:16:58;;;;;;;8.13;6.17;;;;;;;14.07;84.21;99765.91;1770380;81;21084;-63
2021/05/27 00:19:25;;;;;;;;;;;;;;;14.07;84.34;99769.45;1723892;83;21077;-63
2021/05/27 00:21:52;;;;;;;11.50;6.65;;;;;;;14.12;84.19;99772.69;1715613;83;20470;-63
2021/05/27 00:24:18;;;;;;;7.45;6.28;;;;;;;14.11;83.89;99766.40;1691633;83;21065;-63
2021/05/27 00:26:44;;;;;;;8.90;6.55;;;;;;;14.13;83.72;99766.13;1749281;81;21058;-62
2021/05/27 00:29:11;;;;;;;8.70;6.28;;;;;;;14.17;83.62;99758.38;1766876;81;21049;-63
2021/05/27 00:31:37;;;;;;;;;;;;;;;14.23;83.57;99755.84;1767866;81;21092;-62
2021/05/27 00:34:04;;;;;;;8.25;6.90;;;;;;;14.24;83.36;99754.71;1752372;81;20611;-63
2021/05/27 00:36:31;;;;;;;8.75;6.87;;;;;;;14.16;83.65;99748.55;1759918;81;21033;-63
2021/05/27 00:38:58;;;;;;;10.03;7.33;;;;;;;14.19;83.64;99755.35;1740237;81;21076;-62
2021/05/27 00:41:25;;;;;;;8.95;7.05;;;;;;;14.25;83.52;99754.16;1750276;81;21520;-63
2021/05/27 00:43:51;;;;;;;8.18;6.70;;;;;;;14.30;83.33;99754.92;1756849;81;21489;-63
2021/05/27 00:46:17;;;;;;;;;;;;;;;14.30;83.06;99750.81;1754521;81;21647;-62
2021/05/27 00:49:01;;;;;;;6.72;5.17;;;;;;;14.28;83.00;99753.02;1764345;80;20164;-62
2021/05/27 00:51:29;;;;;;;6.67;5.58;;;;;;;14.21;83.15;99754.48;1782928;80;21675;-63
2021/05/27 00:53:58;;;;;;;6.90;5.22;;;;;;;14.11;83.17;99757.37;1748364;82;21061;-63
2021/05/27 00:56:26;;;;;;;6.60;5.53;;;;;;;14.00;83.29;99758.06;1771707;81;21041;-62
2021/05/27 00:58:53;;;;;;;11.08;6.92;;;;;;;13.95;83.29;99760.88;1754514;81;21059;-64
2021/05/27 01:01:20;;;;;;;10.05;7.75;;;;;;;13.85;83.31;99759.64;1762804;81;21514;-63
2021/05/27 01:03:46;;;;;;;12.45;8.53;;;;;;;13.70;83.41;99759.81;1764189;81;21037;-63
2021/05/27 01:06:13;;;;;;;;;;;;;;;13.62;83.55;99759.90;1768027;81;21571;-62
2021/05/27 01:08:39;;;;;;;10.72;7.87;;;;;;;13.63;83.64;99766.19;1780666;80;20171;-63
2021/05/27 01:11:07;;;;;;;10.23;8.08;;;;;;;13.58;83.76;99756.11;1750444;80;21525;-63
2021/05/27 01:13:33;;;;;;;;;;;;;;;13.57;83.83;99759.95;1774527;81;21060;-63
2021/05/27 01:16:00;;;;;;;10.35;8.98;;;;;;;13.57;83.97;99759.95;1725394;82;20150;-63
2021/05/27 01:18:27;;;;;;;;;;;;;;;13.53;84.30;99752.63;1759088;81;21081;-63
2021/05/27 01:20:57;;;;;;;14.00;8.95;;;;;;;13.57;84.35;99752.31;1753113;81;20164;-63
2021/05/27 01:23:26;;;;;;;12.23;8.58;;;;;;;13.55;84.50;99758.61;1747959;81;21667;-63
2021/05/27 01:25:54;;;;;;;14.63;10.45;;;;;;;13.57;84.61;99752.31;1754564;81;21017;-63
2021/05/27 01:28:25;;;;;;;15.20;10.00;;;;;;;13.54;84.79;99752.33;1738924;82;21112;-63
2021/05/27 01:30:51;;;;;;;13.45;9.75;;;;;;;13.57;84.88;99749.00;1769510;81;21037;-63
2021/05/27 01:33:20;;;;;;;11.15;9.18;;;;;;;13.66;84.75;99754.66;1750096;81;21080;-62
2021/05/27 01:35:47;;;;;;;13.22;8.95;;;;;;;13.74;84.75;99756.77;1734329;82;21021;-62
2021/05/27 01:38:16;;;;;;;12.43;9.38;;;;;;;13.82;84.63;99755.55;1747543;81;21632;-62
2021/05/27 01:40:44;;;;;;;12.30;9.28;;;;;;;13.84;84.44;99754.72;1733447;82;21009;-63
2021/05/27 01:43:12;;;;;;;16.45;11.70;;;;;;;13.85;84.36;99762.38;1747334;80;21092;-62
2021/05/27 01:45:39;;;;;;;19.15;11.80;;;;;;;13.82;84.40;99758.83;1748914;81;20985;-62
2021/05/27 01:48:07;;;;;;;20.88;13.58;;;;;;;13.79;84.49;99760.23;1746761;82;21497;-62
2021/05/27 01:50:33;;;;;;;23.47;14.35;;;;;;;13.77;84.53;99755.63;1740739;81;21040;-62
2021/05/27 01:53:03;;;;;;;22.13;15.45;;;;;;;13.75;84.64;99751.53;1769657;81;21057;-62
2021/05/27 01:55:30;;;;;;;17.55;12.85;;;;;;;13.74;84.76;99753.48;1756437;81;21092;-62
2021/05/27 01:57:57;;;;;;;24.07;15.60;;;;;;;13.72;84.93;99752.12;1777369;81;21049;-62
2021/05/27 02:00:24;;;;;;;22.13;14.15;;;;;;;13.70;85.04;99747.51;1777107;80;21040;-62
2021/05/27 02:02:58;;;;;;;23.02;14.28;;;;;;;13.70;85.12;99740.66;1754914;81;21073;-62
2021/05/27 02:05:32;;;;;;;23.05;16.07;;;;;;;13.71;85.14;99746.41;1749778;81;21053;-62
2021/05/27 02:08:02;;;;;;;22.30;14.05;;;;;;;13.67;85.24;99742.07;1747179;81;21559;-62
2021/05/27 02:10:30;;;;;;;23.85;14.63;;;;;;;13.66;85.28;99743.17;1746231;81;21579;-62
2021/05/27 02:12:59;;;;;;;18.98;13.30;;;;;;;13.68;85.28;99744.23;1763002;81;21110;-62
2021/05/27 02:15:27;;;;;;;20.23;13.32;;;;;;;13.69;85.29;99747.23;1720544;82;21975;-64
2021/05/27 02:17:55;;;;;;;15.05;11.03;;;;;;;13.76;85.45;99751.80;1739617;81;21073;-62
2021/05/27 02:20:22;;;;;;;16.67;11.60;;;;;;;13.87;85.66;99745.92;1713956;84;21081;-63
2021/05/27 02:22:49;;;;;;;17.32;13.05;;;;;;;13.99;85.78;99749.61;1745918;80;21160;-63
2021/05/27 02:25:17;;;;;;;21.23;14.00;;;;;;;14.08;85.85;99742.91;1747769;80;21057;-63
2021/05/27 02:27:44;;;;;;;17.52;13.68;;;;;;;14.10;85.44;99731.91;1726167;81;21037;-62
2021/05/27 02:30:13;;;;;;;21.00;13.18;;;;;;;14.15;85.19;99735.97;1746622;82;21057;-62
2021/05/27 02:32:41;;;;;;;16.25;12.43;;;;;;;14.11;85.05;99717.67;1750971;80;21065;-63
2021/05/27 02:35:08;;;;;;;;;;;;;;;14.22;84.77;99734.22;1760946;81;21571;-63
2021/05/27 02:37:36;;;;;;;12.75;10.20;;;;;;;14.20;84.57;99727.69;1745487;81;20488;-62
2021/05/27 02:40:06;;;;;;;14.25;10.03;;;;;;;14.17;84.71;99727.47;1739209;80;21073;-62
2021/05/27 02:42:32;;;;;;;13.25;10.43;;;;;;;14.19;84.52;99730.71;1723015;82;21711;-61
2021/05/27 02:44:59;;;;;;;15.28;10.70;;;;;;;14.17;84.44;99721.41;1753020;81;21080;-62
2021/05/27 02:47:25;;;;;;;;;;;;;;;14.16;84.34;99721.17;1749998;80;21057;-62
2021/05/27 02:49:52;;;;;;;10.28;8.65;;;;;;;14.11;84.27;99717.67;1755627;81;20156;-62
2021/05/27 02:52:18;;;;;;;12.82;9.93;;;;;;;14.03;84.41;99714.25;1777515;81;21683;-62
2021/05/27 02:54:45;;;;;;;13.95;9.78;;;;;;;14.01;84.40;99711.80;1768104;80;21040;-62
2021/05/27 02:57:13;;;;;;;13.60;9.80;;;;;;;14.02;84.38;99707.14;1777025;80;21179;-62
2021/05/27 02:59:41;;;;;;;11.05;9.43;;;;;;;13.98;84.42;99712.94;1773811;81;21038;-63
2021/05/27 03:02:09;;;;;;;11.08;9.20;;;;;;;13.94;84.40;99711.34;1749137;81;21100;-62
2021/05/27 03:04:36;;;;;;;10.72;9.33;;;;;;;14.01;84.72;99705.51;1740406;82;21108;-62
2021/05/27 03:07:03;;;;;;;13.03;10.28;;;;;;;14.12;84.75;99708.36;1749251;81;21661;-62
2021/05/27 03:09:31;;;;;;;12.78;9.88;;;;;;;14.20;84.62;99711.27;1723841;82;21555;-62
2021/05/27 03:11:58;;;;;;;12.45;9.50;;;;;;;14.23;84.41;99716.14;1765010;81;21073;-61
2021/05/27 03:14:27;;;;;;;16.50;11.78;;;;;;;14.25;84.45;99715.28;1775290;81;21606;-63
2021/05/27 03:16:56;;;;;;;13.98;11.35;;;;;;;14.30;84.45;99724.80;1752184;80;21630;-63
2021/05/27 03:19:24;;;;;;;16.77;11.33;;;;;;;14.28;84.41;99720.70;1764192;81;21112;-63
2021/05/27 03:21:50;;;;;;;13.80;11.48;;;;;;;14.26;84.35;99719.66;1761193;81;21124;-63
2021/05/27 03:24:16;;;;;;;;;;;;;;;14.35;84.24;99722.00;1749882;80;21043;-63
2021/05/27 03:26:43;;;;;;;18.07;13.60;;;;;;;14.41;84.08;99718.65;1749774;81;20140;-63
2021/05/27 03:29:10;;;;;;;16.15;12.40;;;;;;;14.41;84.15;99713.98;1746557;80;21037;-63
2021/05/27 03:31:38;;;;;;;14.87;11.97;;;;;;;14.53;84.35;99714.88;1755107;81;21068;-63
2021/05/27 03:34:05;;;;;;;17.65;12.55;;;;;;;14.71;84.56;99703.63;1768984;81;21048;-63
2021/05/27 03:36:32;;;;;;;14.00;11.78;;;;;;;14.93;84.77;99706.55;1773683;81;21589;-63
2021/05/27 03:38:59;;;;;;;16.27;11.60;;;;;;;15.16;84.58;99706.94;1747304;81;20978;-63
2021/05/27 03:41:25;;;;;;;;;;;;;;;15.49;84.33;99713.20;1754471;81;21616;-63
2021/05/27 03:43:53;;;;;;;17.75;13.20;;;;;;;15.84;83.28;99714.40;1756821;80;20454;-63
2021/05/27 03:46:22;;;;;;;14.05;10.82;;;;;;;16.05;81.94;99708.72;1765541;80;21024;-63
2021/05/27 03:48:51;;;;;;;11.78;9.23;;;;;;;16.13;80.75;99706.63;1749121;80;21026;-63
2021/05/27 03:51:17;;;;;;;;;;;;;;;16.16;79.69;99707.38;1741773;80;21598;-63
2021/05/27 03:53:44;;;;;;;13.35;9.28;;;;;;;16.19;79.04;99705.39;1742305;82;20138;-63
2021/05/27 03:56:10;;;;;;;;;;;;;;;16.20;78.95;99701.52;1757479;80;21079;-63
2021/05/27 04:01:27;;;;;;;13.50;10.38;;;;;;;16.38;78.58;99702.48;1753427;80;21032;-63
2021/05/27 04:07:12;;;;;;;14.18;9.88;;;;;;;17.01;77.95;99692.69;1769674;80;21136;-63
2021/05/27 04:09:39;;;;;;;12.45;9.85;;;;;;;17.46;76.55;99693.41;1767595;80;21140;-64
2021/05/27 04:17:41;;;;;;;9.28;7.20;;;;;;;18.67;73.38;99701.34;1763164;80;21076;-63
2021/05/27 04:20:08;;;;;;;12.88;8.85;;;;;;;18.91;71.15;99707.14;1764908;80;21020;-63
2021/05/27 04:22:36;;;;;;;10.68;9.38;;;;;;;18.89;70.38;99699.75;1766325;80;21073;-62
2021/05/27 04:25:03;;;;;;;14.55;10.65;;;;;;;19.04;70.83;99707.51;1736026;81;21066;-62
2021/05/27 04:27:29;;;;;;;12.18;10.28;;;;;;;19.30;69.74;99704.69;1767716;81;21612;-63
2021/05/27 04:29:56;;;;;;;10.80;9.65;;;;;;;19.58;69.79;99699.56;1718531;83;21097;-63
2021/05/27 04:35:08;;;;;;;9.50;8.05;;;;;;;20.08;67.30;99697.66;1759741;80;21627;-63
2021/05/27 04:37:34;;;;;;;9.03;7.62;;;;;;;20.06;66.50;99695.78;1725330;82;21080;-63
2021/05/27 04:40:01;;;;;;;8.63;7.72;;;;;;;20.03;65.76;99696.45;1767500;80;21029;-63
2021/05/27 04:42:27;;;;;;;11.28;8.33;;;;;;;19.98;66.34;99700.78;1764593;80;21693;-63
2021/05/27 04:44:54;;;;;;;9.88;7.87;;;;;;;20.04;65.71;99688.98;1765090;80;21049;-63
2021/05/27 04:47:20;;;;;;;10.35;9.25;;;;;;;20.28;66.48;99704.36;1751075;81;21615;-63
2021/05/27 04:49:46;;;;;;;11.48;8.53;;;;;;;20.61;65.47;99699.70;1752551;81;21060;-61
2021/05/27 04:52:13;;;;;;;8.50;6.55;;;;;;;21.01;65.02;99706.08;1765543;81;21069;-63
2021/05/27 04:54:39;;;;;;;6.53;5.28;;;;;;;21.35;62.69;99705.72;1763777;80;21052;-62
2021/05/27 04:57:05;;;;;;;6.20;5.15;;;;;;;21.53;60.69;99711.28;1731803;81;21075;-62
2021/05/27 04:59:32;;;;;;;6.95;6.00;;;;;;;21.65;60.04;99704.92;1777376;81;21627;-61
2021/05/27 05:01:59;;;;;;;7.85;6.50;;;;;;;21.74;60.36;99699.52;1764435;81;21070;-62
2021/05/27 05:04:26;;;;;;;7.62;6.72;;;;;;;21.78;59.51;99692.13;1751725;81;20978;-60
2021/05/27 05:06:53;;;;;;;8.83;7.12;;;;;;;21.80;59.91;99694.54;1757423;81;21607;-60
2021/05/27 05:09:20;;;;;;;7.45;6.67;;;;;;;21.70;59.87;99689.47;1727266;82;21538;-61
2021/05/27 05:11:46;;;;;;;8.63;6.70;;;;;;;21.63;60.75;99691.44;1713172;82;21073;-60
2021/05/27 05:14:13;;;;;;;7.30;6.60;;;;;;;21.68;60.34;99690.41;1745611;82;21521;-61
2021/05/27 05:16:39;;;;;;;9.03;7.60;;;;;;;21.78;60.03;99686.59;1745842;82;21085;-63
2021/05/27 05:19:06;;;;;;;8.13;6.67;;;;;;;21.59;59.99;99684.97;1705742;82;21553;-64
2021/05/27 05:21:34;;;;;;;9.95;7.15;;;;;;;21.57;60.60;99687.86;1710855;84;21093;-60
2021/05/27 05:24:01;;;;;;;9.15;6.70;;;;;;;21.64;60.04;99683.94;1775879;81;21041;-62
2021/05/27 05:26:28;;;;;;;9.45;6.80;;;;;;;21.65;59.44;99679.98;1724755;82;21052;-62
2021/05/27 05:28:54;;;;;;;8.73;6.30;;;;;;;21.60;60.20;99682.44;1750744;80;21041;-65
2021/05/27 05:31:20;;;;;;;7.80;6.08;;;;;;;21.65;59.96;99681.37;1746477;82;21056;-63
2021/05/27 05:33:48;;;;;;;8.95;6.83;;;;;;;21.80;60.48;99680.69;1752546;81;21450;-63
2021/05/27 05:36:15;;;;;;;8.18;6.90;;;;;;;21.88;59.07;99682.53;1746203;82;21084;-63
2021/05/27 05:38:42;;;;;;;13.35;9.68;;;;;;;21.96;59.54;99677.48;1767885;81;20989;-63
2021/05/27 05:41:08;;;;;;;9.18;7.42;;;;;;;21.96;59.25;99679.45;1768353;80;21571;-61
2021/05/27 05:43:35;;;;;;;11.48;8.83;;;;;;;21.95;59.24;99678.63;1684488;82;21030;-62
2021/05/27 05:46:01;;;;;;;8.78;7.87;;;;;;;22.03;59.31;99681.05;1755305;81;21973;-62
2021/05/27 05:48:27;;;;;;;9.48;7.60;;;;;;;22.10;59.19;99686.23;1745687;82;21100;-62
2021/05/27 05:50:57;;;;;;;9.20;7.10;;;;;;;22.22;59.16;99689.54;1746878;80;21615;-62
2021/05/27 05:53:23;;;;;;;7.53;5.92;;;;;;;22.37;58.12;99695.75;1755096;81;21674;-64
2021/05/27 05:55:52;;;;;;;7.40;5.25;;;;;;;22.55;57.97;99691.53;1756577;80;21911;-62
2021/05/27 05:58:19;;;;;;;7.33;6.00;;;;;;;22.66;56.25;99689.07;1751176;80;21644;-61
2021/05/27 06:00:46;;;;;;;7.85;6.20;;;;;;;22.66;56.20;99705.14;1749908;81;21098;-63
2021/05/27 06:03:13;;;;;;;6.15;5.55;;;;;;;22.55;56.25;99703.20;1747182;80;21061;-63
2021/05/27 06:05:58;;;;;;;8.00;6.55;;;;;;;22.42;56.64;99702.45;1748781;80;21580;-62
2021/05/27 06:08:37;;;;;;;6.30;5.70;;;;;;;22.37;57.20;99692.16;1747959;80;21037;-64
2021/05/27 06:11:05;;;;;;;7.67;6.50;;;;;;;22.33;57.44;99698.42;1750319;81;21096;-65
2021/05/27 06:13:31;;;;;;;7.05;5.80;;;;;;;22.13;57.23;99692.47;1750644;81;21085;-64
2021/05/27 06:15:59;;;;;;;5.92;5.10;;;;;;;21.89;57.70;99695.25;1746602;82;21597;-65
2021/05/27 06:18:26;;;;;;;5.95;4.60;;;;;;;21.72;57.99;99689.34;1752370;81;21025;-64
2021/05/27 06:21:06;;;;;;;6.80;4.67;;;;;;;21.63;58.69;99700.31;1680425;80;21068;-64
2021/05/27 06:23:36;;;;;;;5.40;4.50;;;;;;;21.78;60.64;99698.25;1749929;80;21093;-64
2021/05/27 06:26:03;;;;;;;4.80;4.00;;;;;;;22.11;59.55;99694.77;1753685;80;21064;-63
2021/05/27 06:28:29;;;;;;;5.85;4.65;;;;;;;22.30;58.26;99689.42;1755777;80;21556;-63
2021/05/27 06:30:56;;;;;;;5.37;4.62;;;;;;;22.38;57.62;99695.98;1760538;79;21045;-63
2021/05/27 06:33:24;;;;;;;5.50;4.17;;;;;;;22.45;56.35;99689.84;1754897;81;21746;-63
2021/05/27 06:35:50;;;;;;;4.78;4.08;;;;;;;22.46;56.39;99684.53;1699051;83;21660;-63
2021/05/27 06:38:17;;;;;;;4.75;3.92;;;;;;;22.45;56.62;99686.49;1757055;80;21069;-63
2021/05/27 06:40:43;;;;;;;4.78;4.28;;;;;;;22.42;57.51;99680.27;1758584;81;21571;-63
2021/05/27 06:43:10;;;;;;;4.95;3.60;;;;;;;22.39;56.50;99677.39;1758200;80;21066;-63
2021/05/27 06:45:37;;;;;;;5.10;4.10;;;;;;;22.32;57.35;99680.16;1754306;80;21049;-63
2021/05/27 06:48:05;;;;;;;5.42;3.90;;;;;;;22.22;57.00;99687.58;1747435;81;21044;-63
2021/05/27 06:50:33;;;;;;;5.60;4.40;;;;;;;22.15;58.05;99692.91;1745857;80;21052;-61
2021/05/27 06:53:15;;;;;;;5.65;4.22;;;;;;;22.17;58.16;99698.93;1755502;81;21077;-62
2021/05/27 06:55:42;;;;;;;5.28;3.40;;;;;;;22.21;57.81;99697.66;1751753;80;21056;-63
2021/05/27 07:00:09;;;;;;;4.75;3.20;;;;;;;22.31;56.97;99688.84;1762957;79;22919;-60
2021/05/27 07:02:35;;;;;;;5.08;3.40;;;;;;;22.39;55.92;99688.48;1711847;81;21111;-59
2021/05/27 07:05:01;;;;;;;6.12;3.50;;;;;;;22.42;53.97;99691.94;1701665;83;21056;-62
2021/05/27 07:07:28;;;;;;;5.55;4.15;;;;;;;22.41;54.94;99680.03;1706621;82;21665;-63
2021/05/27 07:09:54;;;;;;;6.53;3.87;;;;;;;22.45;54.70;99678.75;1708051;83;21052;-65
2021/05/27 07:12:22;;;;;;;3.87;3.42;;;;;;;22.57;55.33;99675.33;1714898;83;21116;-64
2021/05/27 07:14:48;;;;;;;5.17;4.10;;;;;;;22.75;54.80;99678.06;1687818;83;21068;-64
2021/05/27 07:17:15;;;;;;;4.72;3.87;;;;;;;22.84;52.23;99661.84;1706555;83;21068;-62
2021/05/27 07:19:41;;;;;;;4.03;3.50;;;;;;;22.81;53.02;99655.05;1703458;83;21132;-65
2021/05/27 07:22:08;;;;;;;5.40;3.33;;;;;;;22.73;54.10;99658.78;1718714;83;21085;-63
2021/05/27 07:24:36;;;;;;;4.28;3.47;;;;;;;22.70;54.63;99651.17;1686788;83;22001;-65
2021/05/27 07:27:03;;;;;;;4.72;3.75;;;;;;;22.67;54.46;99651.88;1706021;83;21088;-64
2021/05/27 07:29:29;;;;;;;5.05;3.17;;;;;;;22.65;54.01;99651.37;1685368;83;21606;-64
2021/05/27 07:31:56;;;;;;;5.58;3.60;;;;;;;22.57;54.68;99647.59;1685894;83;21115;-64
2021/05/27 07:34:23;;;;;;;4.40;3.62;;;;;;;22.52;55.30;99654.80;1687985;83;21641;-64
2021/05/27 07:36:51;;;;;;;5.03;3.90;;;;;;;22.48;55.34;99651.69;1716085;83;21084;-65
2021/05/27 07:39:18;;;;;;;7.65;4.47;;;;;;;22.42;54.73;99646.17;1712065;82;21749;-63
2021/05/27 07:41:44;;;;;;;4.95;3.75;;;;;;;22.32;54.30;99643.30;1716111;83;21084;-64
2021/05/27 07:44:10;;;;;;;5.33;3.83;;;;;;;22.24;54.64;99652.02;1713816;83;21078;-64
2021/05/27 07:46:37;;;;;;;4.80;4.15;;;;;;;22.23;55.81;99656.51;1719386;83;21128;-61
2021/05/27 07:49:05;;;;;;;5.20;4.45;;;;;;;22.27;54.40;99652.69;1719363;83;21036;-61
2021/05/27 07:51:31;;;;;;;5.17;4.03;;;;;;;22.30;55.94;99647.83;1689541;83;21084;-62
2021/05/27 07:53:58;;;;;;;5.47;4.30;;;;;;;22.40;55.35;99648.47;1708920;83;21111;-62
2021/05/27 07:56:25;;;;;;;5.28;3.85;;;;;;;22.46;55.09;99647.09;1688520;83;21083;-63
2021/05/27 07:58:52;;;;;;;5.78;4.85;;;;;;;22.53;55.07;99646.68;1695095;83;21138;-62
2021/05/27 08:01:18;;;;;;;5.80;4.28;;;;;;;22.68;54.71;99636.25;1699048;84;21037;-62
2021/05/27 08:03:45;;;;;;;6.25;4.85;;;;;;;22.79;54.36;99635.16;1708024;82;21076;-62
2021/05/27 08:06:12;;;;;;;6.20;4.80;;;;;;;22.86;53.13;99633.95;1690677;84;21041;-61
2021/05/27 08:08:39;;;;;;;5.60;4.78;;;;;;;22.87;52.99;99630.60;1686009;84;21128;-62
2021/05/27 08:11:07;;;;;;;4.70;4.15;;;;;;;22.87;52.61;99625.86;1692705;84;21532;-62
2021/05/27 08:13:33;;;;;;;5.75;4.83;;;;;;;22.95;52.67;99623.51;1694838;84;21125;-62
2021/05/27 08:15:59;;;;;;;7.05;5.05;;;;;;;23.02;52.66;99623.70;1695282;84;21559;-64
2021/05/27 08:18:26;;;;;;;5.58;4.97;;;;;;;23.16;51.86;99614.34;1691253;84;21120;-62
2021/05/27 08:20:54;;;;;;;7.20;5.15;;;;;;;23.22;52.89;99622.62;1700093;84;21108;-62
2021/05/27 08:23:21;;;;;;;5.72;4.85;;;;;;;23.25;52.47;99627.45;1694481;84;21651;-62
2021/05/27 08:25:47;;;;;;;5.65;4.85;;;;;;;23.22;51.38;99619.03;1707478;84;21057;-65
2021/05/27 08:28:14;;;;;;;6.00;4.80;;;;;;;23.28;52.96;99615.62;1706626;84;21127;-61
2021/05/27 08:30:41;;;;;;;6.03;5.15;;;;;;;23.47;52.49;99614.12;1703000;84;21045;-63
2021/05/27 08:33:07;;;;;;;5.62;5.03;;;;;;;23.52;51.25;99616.63;1694626;84;21101;-61
2021/05/27 08:35:34;;;;;;;7.85;5.00;;;;;;;23.42;51.96;99615.19;1694500;84;21182;-62
2021/05/27 08:38:00;;;;;;;8.50;5.28;;;;;;;23.44;52.13;99620.40;1708863;82;21160;-62
2021/05/27 08:40:27;;;;;;;6.87;5.22;;;;;;;23.43;52.30;99626.53;1708683;84;21132;-61
2021/05/27 08:42:57;;;;;;;6.58;5.05;;;;;;;23.41;52.64;99623.88;1689034;83;21097;-62
2021/05/27 08:45:29;;;;;;;6.75;5.05;;;;;;;23.34;52.89;99624.50;1694661;84;21142;-62
2021/05/27 08:47:56;;;;;;;7.92;5.53;;;;;;;23.31;53.64;99629.39;1697615;83;21108;-62
2021/05/27 08:50:40;;;;;;;7.80;5.30;;;;;;;23.31;53.83;99635.73;1682937;84;21674;-61
2021/05/27 08:52:59;;;;;;;7.65;5.25;;;;;;;23.20;53.27;99633.27;1706064;84;21073;-61
2021/05/27 08:55:26;;;;;;;6.28;5.08;;;;;;;23.07;53.37;99636.48;1692970;84;21081;-61
2021/05/27 08:57:52;;;;;;;6.33;4.70;;;;;;;22.93;54.08;99631.38;1703187;84;21069;-62
2021/05/27 09:00:19;;;;;;;6.12;4.70;;;;;;;22.83;54.16;99636.06;1705193;82;21050;-62
2021/05/27 09:03:01;;;;;;;7.05;5.05;;;;;;;22.69;54.12;99639.83;1679236;84;21563;-62
2021/05/27 09:05:30;;;;;;;8.13;5.28;;;;;;;22.55;54.78;99638.02;1695977;83;21096;-62
2021/05/27 09:07:57;;;;;;;15.72;5.53;;;;;;;22.44;55.31;99640.49;1707378;83;21587;-62
2021/05/27 09:10:48;;;;;;;10.60;4.90;;;;;;;22.37;56.04;99638.09;1698914;83;21044;-61
2021/05/27 09:13:17;;;;;;;6.85;5.03;;;;;;;22.24;55.58;99632.60;1714000;83;21104;-61
2021/05/27 09:15:48;;;;;;;7.53;4.78;;;;;;;22.10;56.20;99639.69;1698257;83;21056;-61
2021/05/27 09:18:35;;;;;;;8.75;4.30;;;;;;;22.06;56.97;99639.58;1719126;83;21630;-62
2021/05/27 09:21:03;;;;;;;17.55;5.10;;;;;;;22.07;56.97;99638.41;1693229;85;21551;-62
2021/05/27 09:23:30;;;;;;;5.53;4.45;;;;;;;22.07;57.63;99639.79;1685312;84;21109;-62
2021/05/27 09:26:12;;;;;;;10.63;4.78;;;;;;;22.10;56.57;99639.11;1681711;84;21539;-64
2021/05/27 09:28:41;;;;;;;6.37;4.62;;;;;;;22.12;56.35;99630.43;1691531;83;21014;-62
2021/05/27 09:31:10;;;;;;;6.33;4.28;;;;;;;22.01;57.43;99621.80;1714108;83;21032;-63
2021/05/27 09:33:43;;;;;;;5.75;4.78;;;;;;;22.09;57.68;99633.91;1707020;83;21028;-62
2021/05/27 09:36:12;;;;;;;7.47;4.70;;;;;;;22.09;58.08;99643.03;1699851;83;21107;-63
2021/05/27 09:38:46;;;;;;;8.98;4.47;;;;;;;22.04;58.00;99634.95;1704723;83;21067;-62
2021/05/27 09:41:21;;;;;;;5.80;4.85;;;;;;;22.01;58.29;99632.07;1707045;83;21041;-61
2021/05/27 09:43:56;;;;;;;7.15;5.33;;;;;;;21.96;58.60;99634.53;1701464;83;21052;-63
2021/05/27 09:46:24;;;;;;;6.90;4.28;;;;;;;21.93;59.25;99634.42;1699307;83;21040;-62
2021/05/27 09:49:08;;;;;;;9.25;5.45;;;;;;;21.94;59.98;99633.23;1678725;82;21024;-61
2021/05/27 09:51:35;;;;;;;6.58;5.05;;;;;;;21.92;60.53;99625.87;1694154;83;21133;-62
2021/05/27 09:54:03;;;;;;;5.65;5.03;;;;;;;21.76;60.97;99630.70;1711341;82;21076;-61
2021/05/27 09:56:42;;;;;;;8.10;5.53;;;;;;;21.68;61.72;99628.86;1664964;85;21160;-61
2021/05/27 09:59:12;;;;;;;6.65;5.53;;;;;;;21.60;62.63;99636.73;1700277;83;21156;-62
2021/05/27 10:01:40;;;;;;;9.15;5.10;;;;;;;21.57;63.04;99631.89;1695704;83;21457;-62
2021/05/27 10:04:15;;;;;;;5.78;5.15;;;;;;;21.49;63.15;99630.04;1646712;87;21124;-63
2021/05/27 10:06:42;;;;;;;6.65;5.70;;;;;;;21.36;64.19;99629.00;1664457;84;21629;-62
2021/05/27 10:09:11;;;;;;;6.58;5.70;;;;;;;21.28;65.28;99628.77;1662784;86;21112;-63
2021/05/27 10:11:39;;;;;;;9.10;6.03;;;;;;;21.22;65.66;99634.28;1649934;86;21124;-63
2021/05/27 10:14:07;;;;;;;6.58;5.55;;;;;;;21.22;65.83;99631.52;1651501;86;21132;-63
2021/05/27 10:16:37;;;;;;;9.43;5.60;;;;;;;21.25;65.95;99627.27;1653939;86;21072;-63
2021/05/27 10:19:05;;;;;;;7.65;5.50;;;;;;;21.10;66.81;99620.45;1700405;83;21680;-64
2021/05/27 10:21:31;;;;;;;7.40;6.08;;;;;;;20.85;67.68;99619.56;1711519;82;21109;-63
2021/05/27 10:23:58;;;;;;;8.88;6.60;;;;;;;20.66;68.45;99619.27;1705300;82;21613;-64
2021/05/27 10:26:25;;;;;;;8.88;5.53;;;;;;;20.47;69.33;99627.86;1696015;83;21084;-63
2021/05/27 10:28:53;;;;;;;7.95;6.53;;;;;;;20.33;70.24;99623.41;1700924;83;21658;-62
2021/05/27 10:31:21;;;;;;;10.20;6.58;;;;;;;20.30;70.75;99624.09;1695477;83;21050;-62
2021/05/27 10:33:48;;;;;;;7.28;6.20;;;;;;;20.36;71.37;99624.70;1715540;83;21033;-63
2021/05/27 10:36:16;;;;;;;8.08;6.60;;;;;;;20.36;71.68;99628.85;1714326;83;21108;-63
2021/05/27 10:38:50;;;;;;;7.33;5.95;;;;;;;20.25;71.92;99633.95;1690500;83;21072;-61
2021/05/27 10:41:22;;;;;;;8.60;6.45;;;;;;;20.16;72.68;99628.24;1692451;83;21512;-60
2021/05/27 10:44:07;;;;;;;10.30;7.10;;;;;;;20.00;73.20;99630.82;1702757;83;21388;-61
2021/05/27 10:46:46;;;;;;;9.78;7.22;;;;;;;19.78;74.00;99626.42;1687700;85;21093;-61
2021/05/27 10:49:33;;;;;;;9.68;7.15;;;;;;;19.75;74.56;99627.09;1712647;83;22550;-59
2021/05/27 10:52:32;;;;;;;9.78;7.58;;;;;;;19.77;74.90;99628.94;1677733;83;21753;-60
2021/05/27 10:54:59;;;;;;;9.90;8.38;;;;;;;19.83;74.82;99627.62;1694466;83;21084;-58
2021/05/27 10:57:46;;;;;;;11.15;7.97;;;;;;;19.87;75.01;99631.30;1689032;83;21166;-58
2021/05/27 11:00:42;;;;;;;11.33;7.95;;;;;;;19.90;75.24;99625.70;1702591;83;21097;-59
2021/05/27 11:03:41;;;;;;;13.32;8.00;;;;;;;19.93;75.15;99629.73;1682095;82;21754;-59
2021/05/27 11:06:27;;;;;;;11.22;8.28;;;;;;;19.93;75.08;99628.36;1705075;84;21129;-59
2021/05/27 11:09:16;;;;;;;10.05;9.00;;;;;;;19.89;74.90;99628.22;1707202;83;21061;-60
2021/05/27 11:12:05;;;;;;;11.57;8.68;;;;;;;19.82;75.44;99641.75;1685339;84;21095;-60
2021/05/27 11:14:36;;;;;;;;;;;;;;;19.77;75.82;99632.27;1679943;83;21649;-60
2021/05/27 11:17:14;;;;;;;12.03;9.30;;;;;;;19.70;75.74;99638.33;1692509;84;20194;-60
2021/05/27 11:22:45;;;;;;;11.93;8.98;;;;;;;19.57;75.73;99621.44;1701083;84;21073;-59
2021/05/27 11:25:16;;;;;;;13.13;9.55;;;;;;;19.50;75.79;99620.34;1690416;84;21072;-61
2021/05/27 11:27:54;;;;;;;11.78;8.83;;;;;;;19.45;76.21;99626.06;1701229;84;21073;-59
2021/05/27 11:30:40;;;;;;;10.18;8.20;;;;;;;19.32;76.44;99611.31;1683483;83;21041;-60
2021/05/27 11:33:27;;;;;;;11.65;9.08;;;;;;;19.25;76.46;99617.36;1697444;84;21124;-60
2021/05/27 11:35:54;;;;;;;13.93;8.55;;;;;;;19.21;77.07;99621.91;1694607;84;21065;-60
2021/05/27 11:38:32;;;;;;;10.20;9.10;;;;;;;19.30;77.72;99632.92;1706470;84;21121;-60
2021/05/27 11:41:10;;;;;;;10.70;8.93;;;;;;;19.32;77.78;99634.77;1671634;84;21073;-60
2021/05/27 11:43:42;;;;;;;10.50;8.88;;;;;;;19.29;78.06;99632.68;1680334;85;21037;-60
2021/05/27 11:46:19;;;;;;;14.85;8.55;;;;;;;19.28;78.19;99631.05;1681307;84;21085;-61
2021/05/27 11:48:56;;;;;;;8.93;7.83;;;;;;;19.26;78.31;99621.74;1706242;84;21022;-61
2021/05/27 11:51:19;;;;;;;9.88;7.62;;;;;;;19.34;78.59;99618.11;1703250;84;21077;-61
2021/05/27 11:53:55;;;;;;;8.48;6.67;;;;;;;19.45;78.77;99619.17;1680430;85;21017;-61
2021/05/27 11:56:49;;;;;;;5.80;5.20;;;;;;;19.59;78.20;99610.08;1699498;84;21059;-60
2021/05/27 11:59:21;;;;;;;6.70;5.15;;;;;;;19.70;76.97;99600.23;1708651;83;21104;-61
2021/05/27 12:02:00;;;;;;;7.25;5.65;;;;;;;19.74;76.90;99584.05;1717992;83;21096;-61